Time;durP1;ratioP1;P1;durP2;ratioP2;P2;SDS_P1;SDS_P2;PMS_P1;PMS_P2;Temp;Humidity;BMP_temperature;BMP_pressure;BME280_temperature;BME280_humidity;BME280_pressure;Samples;Min_cycle;Max_cycle;Signal;HPM_P1;HPM_P2
2021/03/30 00:01:19;;;;;;;;;;;;;;;21.87;20.71;98927.72;5062027;28;999;-75
2021/03/30 00:03:45;;;;;;;;;;;;;;;21.80;21.04;98935.06;5043922;28;850;-75
2021/03/30 00:06:11;;;;;;;;;;;;;;;21.61;20.95;98921.56;5062185;28;1026;-75
2021/03/30 00:08:36;;;;;;;;;;;;;;;21.69;21.16;98931.56;5061458;28;607;-75
2021/03/30 00:11:02;;;;;;;;;;;;;;;21.68;21.27;98920.66;5062480;28;1182;-75
2021/03/30 00:13:27;;;;;;;;;;;;;;;21.75;21.10;98914.88;5061466;28;726;-75
2021/03/30 00:15:52;;;;;;;;;;;;;;;21.49;21.25;98919.25;5044708;28;1922;-75
2021/03/30 00:18:18;;;;;;;;;;;;;;;21.13;21.91;98913.94;5061152;28;600;-76
2021/03/30 00:20:43;;;;;;;;;;;;;;;22.11;20.84;98918.06;5061716;28;972;-76
2021/03/30 00:23:09;;;;;;;;;;;;;;;23.01;19.46;98909.78;5061497;28;837;-76
2021/03/30 00:25:34;;;;;;;;;;;;;;;22.22;20.49;98921.56;5061805;28;925;-76
2021/03/30 00:28:00;;;;;;;;;;;;;;;21.73;21.05;98923.03;5061358;28;690;-76
2021/03/30 00:30:25;;;;;;;;;;;;;;;21.64;21.30;98920.69;5061666;28;622;-76
2021/03/30 00:32:51;;;;;;;;;;;;;;;21.79;21.00;98916.44;5062017;28;734;-76
2021/03/30 00:35:16;;;;;;;;;;;;;;;21.64;21.23;98915.03;5043856;28;1085;-76
2021/03/30 00:37:42;;;;;;;;;;;;;;;21.74;21.12;98910.47;5061182;28;1961;-76
2021/03/30 00:40:08;;;;;;;;;;;;;;;21.85;21.01;98913.94;5061338;28;962;-76
2021/03/30 00:42:34;;;;;;;;;;;;;;;21.67;21.29;98900.03;5061494;28;681;-75
2021/03/30 00:44:59;;;;;;;;;;;;;;;21.68;21.37;98901.63;5060951;28;675;-75
2021/03/30 00:47:25;;;;;;;;;;;;;;;21.65;21.19;98899.63;5060790;28;1089;-75
2021/03/30 00:49:50;;;;;;;;;;;;;;;21.51;21.56;98900.63;5060745;28;908;-75
2021/03/30 00:52:17;;;;;;;;;;;;;;;21.74;21.10;98902.75;5043793;28;1229;-75
2021/03/30 00:55:01;;;;;;;;;;;;;;;21.56;21.41;98902.19;5060757;28;577;-75
2021/03/30 00:57:28;;;;;;;;;;;;;;;21.68;21.39;98900.81;5043769;28;1902;-76
2021/03/30 00:59:53;;;;;;;;;;;;;;;22.74;20.04;98907.00;5061283;28;610;-76
2021/03/30 01:02:19;;;;;;;;;;;;;;;22.12;20.79;98910.38;5061396;28;814;-75
2021/03/30 01:04:44;;;;;;;;;;;;;;;21.81;20.86;98925.34;5060516;28;965;-76
2021/03/30 01:07:10;;;;;;;;;;;;;;;21.67;21.23;98902.84;5061198;28;984;-76
2021/03/30 01:09:48;;;;;;;;;;;;;;;21.70;21.16;98904.81;5060726;28;990;-76
2021/03/30 01:12:32;;;;;;;;;;;;;;;22.68;20.14;98897.34;5060983;28;615;-76
2021/03/30 01:15:12;;;;;;;;;;;;;;;22.56;20.02;98900.81;5060071;28;941;-76
2021/03/30 01:17:41;;;;;;;;;;;;;;;21.95;20.83;98906.53;5060364;28;1902;-75
2021/03/30 01:20:06;;;;;;;;;;;;;;;21.90;20.84;98909.84;5060389;28;702;-74
2021/03/30 01:22:44;;;;;;;;;;;;;;;21.92;20.90;98910.25;5060834;28;647;-75
2021/03/30 01:25:09;;;;;;;;;;;;;;;21.83;21.21;98910.75;5060317;28;686;-75
2021/03/30 01:27:44;;;;;;;;;;;;;;;21.85;20.86;98903.41;5043412;28;734;-75
2021/03/30 01:30:10;;;;;;;;;;;;;;;21.66;21.47;98906.94;5060345;28;702;-76
2021/03/30 01:32:39;;;;;;;;;;;;;;;21.70;21.49;98904.81;5043049;28;880;-76
2021/03/30 01:35:07;;;;;;;;;;;;;;;21.66;21.29;98901.25;5060026;28;919;-76
2021/03/30 01:37:39;;;;;;;;;;;;;;;21.52;21.49;98901.44;5060441;28;1982;-75
2021/03/30 01:40:05;;;;;;;;;;;;;;;21.67;21.40;98902.84;5043003;28;599;-75
2021/03/30 01:42:30;;;;;;;;;;;;;;;21.06;22.29;98902.72;5043037;28;639;-74
2021/03/30 01:44:56;;;;;;;;;;;;;;;21.25;22.01;98904.13;5043024;28;449;-75
2021/03/30 01:47:21;;;;;;;;;;;;;;;22.51;20.30;98898.44;5043031;28;948;-76
2021/03/30 01:49:47;;;;;;;;;;;;;;;22.42;20.43;98901.81;5042776;28;871;-76
2021/03/30 01:52:14;;;;;;;;;;;;;;;22.08;21.01;98899.06;5043451;28;982;-76
2021/03/30 01:54:39;;;;;;;;;;;;;;;21.99;20.77;98901.63;5060222;28;695;-76
2021/03/30 01:57:05;;;;;;;;;;;;;;;21.65;21.48;98893.97;5043003;28;1906;-76
2021/03/30 01:59:30;;;;;;;;;;;;;;;21.65;21.63;98899.63;5043183;28;1049;-76
2021/03/30 02:01:56;;;;;;;;;;;;;;;21.83;21.20;98890.91;5046903;28;947;-74
2021/03/30 02:04:23;;;;;;;;;;;;;;;22.05;21.04;98894.25;5063878;28;970;-75
2021/03/30 02:06:48;;;;;;;;;;;;;;;21.12;22.26;98895.38;5064268;28;678;-75
2021/03/30 02:09:20;;;;;;;;;;;;;;;21.98;21.01;98888.69;5046474;28;1205;-75
2021/03/30 02:12:09;;;;;;;;;;;;;;;21.82;21.14;98887.28;5064317;28;670;-79
2021/03/30 02:14:34;;;;;;;;;;;;;;;21.61;21.48;98893.22;5049783;28;928;-76
2021/03/30 02:17:03;;;;;;;;;;;;;;;21.67;21.69;98879.41;5063932;28;1910;-76
2021/03/30 02:19:32;;;;;;;;;;;;;;;21.77;21.44;98886.97;5063960;28;721;-76
2021/03/30 02:21:58;;;;;;;;;;;;;;;21.74;21.68;98884.97;5047034;28;658;-75
2021/03/30 02:24:24;;;;;;;;;;;;;;;21.77;21.44;98893.44;5046802;28;622;-76
2021/03/30 02:26:50;;;;;;;;;;;;;;;21.83;21.41;98888.88;5046520;28;817;-75
2021/03/30 02:29:18;;;;;;;;;;;;;;;21.73;21.55;98878.50;5046115;28;793;-75
2021/03/30 02:31:43;;;;;;;;;;;;;;;21.75;21.49;98881.69;5047083;28;950;-77
2021/03/30 02:34:09;;;;;;;;;;;;;;;21.16;22.17;98889.69;5063739;28;611;-77
2021/03/30 02:36:34;;;;;;;;;;;;;;;22.32;20.90;98892.25;5064217;28;1973;-76
2021/03/30 02:39:01;;;;;;;;;;;;;;;22.42;20.97;98878.34;5063537;28;694;-76
2021/03/30 02:41:27;;;;;;;;;;;;;;;22.59;20.54;98892.25;5046869;28;933;-76
2021/03/30 02:43:52;;;;;;;;;;;;;;;22.06;21.04;98890.19;5046080;28;829;-77
2021/03/30 02:46:17;;;;;;;;;;;;;;;22.05;21.40;98888.59;5046635;28;1013;-75
2021/03/30 02:48:43;;;;;;;;;;;;;;;21.93;21.16;98875.81;5062986;28;559;-76
2021/03/30 02:51:08;;;;;;;;;;;;;;;21.87;21.46;98877.50;5063695;28;641;-76
2021/03/30 02:53:34;;;;;;;;;;;;;;;21.88;21.59;98883.97;5045548;28;623;-76
2021/03/30 02:56:00;;;;;;;;;;;;;;;21.90;21.36;98875.84;5063586;28;1973;-76
2021/03/30 02:58:25;;;;;;;;;;;;;;;21.79;21.52;98882.47;5045921;28;770;-75
2021/03/30 03:00:51;;;;;;;;;;;;;;;21.56;22.14;98880.34;5063261;28;1028;-75
2021/03/30 03:03:16;;;;;;;;;;;;;;;21.58;22.03;98877.88;5045322;28;926;-75
2021/03/30 03:05:42;;;;;;;;;;;;;;;21.65;21.90;98888.31;5063553;28;939;-75
2021/03/30 03:08:08;;;;;;;;;;;;;;;21.67;21.66;98883.03;5045515;28;798;-76
2021/03/30 03:10:34;;;;;;;;;;;;;;;21.64;21.92;98881.03;5063002;28;1028;-76
2021/03/30 03:12:59;;;;;;;;;;;;;;;21.72;21.84;98882.56;5045039;28;754;-76
2021/03/30 03:15:25;;;;;;;;;;;;;;;21.66;22.04;98878.59;5045868;28;917;-76
2021/03/30 03:17:50;;;;;;;;;;;;;;;21.63;21.78;98879.44;5045576;28;1879;-76
2021/03/30 03:20:16;;;;;;;;;;;;;;;21.60;22.07;98885.94;5063200;28;957;-77
2021/03/30 03:22:41;;;;;;;;;;;;;;;21.94;21.75;98887.94;5062817;28;771;-76
2021/03/30 03:25:07;;;;;;;;;;;;;;;22.20;21.44;98892.03;5045677;28;646;-76
2021/03/30 03:27:35;;;;;;;;;;;;;;;22.40;21.18;98892.16;5062897;28;647;-76
2021/03/30 03:30:08;;;;;;;;;;;;;;;22.56;20.99;98883.78;5062659;28;870;-76
2021/03/30 03:32:33;;;;;;;;;;;;;;;22.51;20.75;98892.78;5044787;28;942;-77
2021/03/30 03:34:59;;;;;;;;;;;;;;;22.22;21.19;98893.22;5062343;28;971;-76
2021/03/30 03:37:24;;;;;;;;;;;;;;;21.85;21.66;98892.09;5062994;28;1910;-76
2021/03/30 03:39:50;;;;;;;;;;;;;;;21.73;21.98;98894.69;5062230;28;662;-76
2021/03/30 03:42:15;;;;;;;;;;;;;;;21.62;22.09;98889.16;5045302;28;772;-76
2021/03/30 03:44:41;;;;;;;;;;;;;;;21.65;21.99;98899.63;5061819;28;964;-76
2021/03/30 03:47:06;;;;;;;;;;;;;;;21.71;21.97;98892.28;5062178;28;957;-76
2021/03/30 03:49:32;;;;;;;;;;;;;;;21.67;22.12;98902.84;5062037;28;846;-76
2021/03/30 03:51:59;;;;;;;;;;;;;;;21.68;21.98;98889.50;5062747;28;670;-76
2021/03/30 03:54:24;;;;;;;;;;;;;;;21.52;22.13;98890.91;5044506;28;766;-76
2021/03/30 03:56:52;;;;;;;;;;;;;;;21.56;22.36;98896.53;5044586;28;1905;-77
2021/03/30 03:59:18;;;;;;;;;;;;;;;21.51;22.36;98899.81;5061765;28;977;-76
2021/03/30 04:01:44;;;;;;;;;;;;;;;21.52;22.36;98893.72;5044964;28;883;-75
2021/03/30 04:04:14;;;;;;;;;;;;;;;21.89;21.96;98908.25;5044649;28;838;-75
2021/03/30 04:06:41;;;;;;;;;;;;;;;22.70;20.75;98888.41;5045170;28;656;-76
2021/03/30 04:09:06;;;;;;;;;;;;;;;22.46;20.95;98891.22;5044370;28;1185;-76
2021/03/30 04:11:32;;;;;;;;;;;;;;;22.04;21.32;98898.31;5044936;28;675;-76
2021/03/30 04:13:58;;;;;;;;;;;;;;;21.72;21.90;98899.56;5061224;28;953;-75
2021/03/30 04:16:23;;;;;;;;;;;;;;;21.85;21.71;98902.63;5044249;28;1906;-75
2021/03/30 04:18:49;;;;;;;;;;;;;;;21.47;22.51;98890.56;5061689;28;821;-76
2021/03/30 04:21:15;;;;;;;;;;;;;;;22.20;21.68;98901.34;5062338;28;638;-76
2021/03/30 04:23:45;;;;;;;;;;;;;;;21.93;21.77;98897.66;5061134;28;611;-77
2021/03/30 04:26:11;;;;;;;;;;;;;;;21.81;21.89;98908.34;5062897;28;853;-76
2021/03/30 04:28:36;;;;;;;;;;;;;;;21.40;22.58;98910.44;5061022;28;830;-76
2021/03/30 04:31:02;;;;;;;;;;;;;;;21.91;22.04;98900.09;5062221;28;941;-76
2021/03/30 04:33:27;;;;;;;;;;;;;;;21.95;22.03;98900.88;5043919;28;1108;-76
2021/03/30 04:35:53;;;;;;;;;;;;;;;21.68;22.36;98904.47;5062120;28;1901;-76
2021/03/30 04:38:18;;;;;;;;;;;;;;;21.33;22.54;98908.50;5061393;28;658;-77
2021/03/30 04:40:50;;;;;;;;;;;;;;;21.25;22.79;98904.94;5061677;28;877;-76
2021/03/30 04:43:15;;;;;;;;;;;;;;;21.89;22.10;98913.91;5060980;28;928;-76
2021/03/30 04:45:41;;;;;;;;;;;;;;;21.95;21.99;98915.03;5061828;28;941;-76
2021/03/30 04:48:06;;;;;;;;;;;;;;;21.67;22.37;98914.19;5061104;28;664;-76
2021/03/30 04:50:32;;;;;;;;;;;;;;;21.69;22.31;98922.25;5044326;28;706;-76
2021/03/30 04:52:57;;;;;;;;;;;;;;;21.67;22.31;98916.22;5061122;28;948;-76
2021/03/30 04:55:23;;;;;;;;;;;;;;;20.80;23.43;98919.13;5061244;28;966;-76
2021/03/30 04:57:48;;;;;;;;;;;;;;;22.26;21.63;98915.84;5061236;28;1910;-76
2021/03/30 05:00:17;;;;;;;;;;;;;;;22.77;20.91;98920.31;5061460;28;643;-77
2021/03/30 05:02:42;;;;;;;;;;;;;;;22.45;21.29;98917.19;5061339;28;646;-75
2021/03/30 05:05:08;;;;;;;;;;;;;;;22.04;21.84;98921.00;5061072;28;718;-76
2021/03/30 05:07:33;;;;;;;;;;;;;;;21.79;22.07;98922.13;5061297;28;901;-77
2021/03/30 05:09:59;;;;;;;;;;;;;;;21.81;22.07;98916.84;5043113;28;999;-76
2021/03/30 05:12:25;;;;;;;;;;;;;;;21.94;22.15;98930.44;5061614;28;1047;-76
2021/03/30 05:14:50;;;;;;;;;;;;;;;21.78;22.17;98931.06;5060694;28;785;-77
2021/03/30 05:17:16;;;;;;;;;;;;;;;21.73;22.22;98929.47;5061413;28;1973;-76
2021/03/30 05:19:41;;;;;;;;;;;;;;;21.73;22.55;98928.69;5060852;28;706;-76
2021/03/30 05:22:06;;;;;;;;;;;;;;;21.72;22.56;98936.38;5061580;28;615;-76
2021/03/30 05:24:32;;;;;;;;;;;;;;;21.78;22.46;98931.84;5060455;28;853;-76
2021/03/30 05:26:57;;;;;;;;;;;;;;;21.67;22.46;98948.19;5060864;28;850;-76
2021/03/30 05:29:23;;;;;;;;;;;;;;;21.73;22.44;98940.81;5060718;28;1084;-77
2021/03/30 05:31:48;;;;;;;;;;;;;;;21.84;22.29;98932.97;5061311;28;619;-76
2021/03/30 05:34:14;;;;;;;;;;;;;;;21.79;22.34;98936.28;5059836;28;634;-75
2021/03/30 05:36:39;;;;;;;;;;;;;;;21.82;22.28;98938.28;5043822;28;1959;-76
2021/03/30 05:39:05;;;;;;;;;;;;;;;21.92;22.37;98938.56;5060587;28;669;-76
2021/03/30 05:41:30;;;;;;;;;;;;;;;22.32;21.67;98942.47;5061051;28;635;-77
2021/03/30 05:43:56;;;;;;;;;;;;;;;22.58;21.55;98950.19;5060148;28;1038;-76
2021/03/30 05:46:21;;;;;;;;;;;;;;;22.11;21.95;98946.41;5060499;28;833;-76
2021/03/30 05:48:48;;;;;;;;;;;;;;;21.70;22.78;98947.31;5060162;28;936;-76
2021/03/30 05:51:13;;;;;;;;;;;;;;;21.62;22.81;98957.13;5044042;28;942;-76
2021/03/30 05:53:39;;;;;;;;;;;;;;;21.77;22.46;98952.13;5042720;28;893;-76
2021/03/30 05:56:05;;;;;;;;;;;;;;;21.61;22.83;98961.22;5061234;28;1898;-76
2021/03/30 05:58:31;;;;;;;;;;;;;;;21.67;22.60;98967.22;5025284;28;980;-76
2021/03/30 06:00:57;;;;;;;;;;;;;;;21.62;23.02;98976.97;5060986;28;884;-76
2021/03/30 06:03:24;;;;;;;;;;;;;;;21.59;22.87;98995.59;5043368;28;901;-76
2021/03/30 06:05:53;;;;;;;;;;;;;;;21.75;22.61;98972.34;5061386;28;630;-76
2021/03/30 06:08:20;;;;;;;;;;;;;;;21.67;22.66;98964.38;5060155;28;761;-76
2021/03/30 06:10:45;;;;;;;;;;;;;;;21.70;22.91;98958.66;5043322;28;1158;-76
2021/03/30 06:13:11;;;;;;;;;;;;;;;21.72;22.65;98967.53;5042534;28;983;-76
2021/03/30 06:15:36;;;;;;;;;;;;;;;21.67;22.91;98967.22;5060079;28;1906;-76
2021/03/30 06:18:15;;;;;;;;;;;;;;;21.70;22.77;98958.66;5060379;28;1023;-76
2021/03/30 06:20:41;;;;;;;;;;;;;;;21.89;22.85;98967.75;5061028;28;670;-76
2021/03/30 06:23:06;;;;;;;;;;;;;;;22.25;22.03;98970.94;5060161;28;752;-76
2021/03/30 06:25:36;;;;;;;;;;;;;;;22.47;22.09;98971.44;5060492;28;682;-76
2021/03/30 06:28:32;;;;;;;;;;;;;;;22.39;22.01;98969.94;5041309;28;983;-69
2021/03/30 06:30:57;;;;;;;;;;;;;;;22.05;23.12;98962.28;5042476;28;1260;-69
2021/03/30 06:33:23;;;;;;;;;;;;;;;22.24;22.92;98975.81;5059409;28;587;-71
2021/03/30 06:35:48;;;;;;;;;;;;;;;22.48;22.84;98967.38;5042538;28;2057;-76
2021/03/30 06:38:13;;;;;;;;;;;;;;;22.42;23.24;98969.06;5060266;28;702;-76
2021/03/30 06:40:41;;;;;;;;;;;;;;;22.38;23.56;98979.66;5060213;28;683;-75
2021/03/30 06:46:33;;;;;;;;;;;;;;;22.34;23.67;98994.72;5017154;28;1157;-73
2021/03/30 06:48:58;;;;;;;;;;;;;;;22.55;23.66;98979.41;5062715;28;659;-74
2021/03/30 06:51:24;;;;;;;;;;;;;;;22.41;23.96;98990.16;5045109;28;900;-73
2021/03/30 06:53:50;;;;;;;;;;;;;;;22.46;24.13;98992.53;5063109;28;662;-74
2021/03/30 06:56:15;;;;;;;;;;;;;;;22.48;24.10;99001.38;5062609;28;1894;-75
2021/03/30 06:59:01;;;;;;;;;;;;;;;22.99;23.52;98996.59;5355206;22;3507;-73
2021/03/30 07:01:33;;;;;;;;;;;;;;;23.35;23.36;98997.56;5022885;28;893;-74
2021/03/30 07:03:59;;;;;;;;;;;;;;;23.10;23.62;99000.06;5021415;28;1150;-73
2021/03/30 07:06:31;;;;;;;;;;;;;;;22.88;24.23;99003.25;5021386;28;1163;-73
2021/03/30 07:09:03;;;;;;;;;;;;;;;22.87;24.01;99018.63;5022083;28;728;-74
2021/03/30 07:11:39;;;;;;;;;;;;;;;22.93;24.15;99018.19;5022147;28;607;-74
2021/03/30 07:14:10;;;;;;;;;;;;;;;22.98;24.24;99000.66;5023164;28;642;-76
2021/03/30 07:16:51;;;;;;;;;;;;;;;22.81;24.67;99014.69;5022496;28;1902;-74
2021/03/30 07:19:24;;;;;;;;;;;;;;;22.81;24.95;99006.16;5021728;28;954;-75
2021/03/30 07:22:02;;;;;;;;;;;;;;;22.74;25.03;99020.47;5023077;28;619;-76
2021/03/30 07:24:39;;;;;;;;;;;;;;;22.72;25.13;99020.09;5022439;28;757;-74
2021/03/30 07:27:14;;;;;;;;;;;;;;;22.68;24.96;99022.16;5021886;28;686;-74
2021/03/30 07:29:41;;;;;;;;;;;;;;;22.86;25.19;99033.25;5071495;23;3491;-75
2021/03/30 07:32:43;;;;;;;;;;;;;;;23.57;24.20;99031.28;5041809;28;1027;-74
2021/03/30 07:35:32;;;;;;;;;;;;;;;22.94;25.00;99028.28;5041295;28;1043;-73
2021/03/30 07:38:10;;;;;;;;;;;;;;;22.70;25.52;99031.06;5041674;28;746;-76
2021/03/30 07:40:43;;;;;;;;;;;;;;;22.61;25.72;99033.63;5041949;28;634;-74
2021/03/30 07:43:09;;;;;;;;;;;;;;;22.96;25.52;99031.53;5041045;28;1035;-75
2021/03/30 07:45:41;;;;;;;;;;;;;;;22.90;25.41;99034.06;5041595;28;874;-74
2021/03/30 07:48:15;;;;;;;;;;;;;;;22.81;25.68;99037.38;5041028;28;630;-74
2021/03/30 07:50:49;;;;;;;;;;;;;;;22.72;25.93;99067.53;5041848;28;674;-74
2021/03/30 07:53:37;;;;;;;;;;;;;;;22.84;25.97;99045.03;5041698;28;643;-74
2021/03/30 07:56:13;;;;;;;;;;;;;;;22.93;25.68;99032.38;5041466;28;1973;-73
2021/03/30 07:58:45;;;;;;;;;;;;;;;22.49;26.34;99037.84;5040813;28;848;-73
2021/03/30 08:01:18;;;;;;;;;;;;;;;22.80;25.91;99046.34;5041110;28;871;-75
2021/03/30 08:03:50;;;;;;;;;;;;;;;22.71;26.13;99044.03;5040905;28;1339;-74
2021/03/30 08:06:22;;;;;;;;;;;;;;;22.61;25.94;99047.81;5037919;28;1043;-72
2021/03/30 08:08:49;;;;;;;;;;;;;;;22.64;26.37;99044.13;5041143;28;1210;-76
2021/03/30 08:11:43;;;;;;;;;;;;;;;22.63;25.97;99048.19;5041567;28;1198;-76
2021/03/30 08:14:18;;;;;;;;;;;;;;;22.54;26.49;99050.75;5040249;28;1115;-74
2021/03/30 08:16:51;;;;;;;;;;;;;;;22.70;26.18;99052.97;5040737;28;1898;-74
2021/03/30 08:19:27;;;;;;;;;;;;;;;22.68;26.24;99061.09;5041494;28;1224;-76
2021/03/30 08:21:59;;;;;;;;;;;;;;;22.71;26.19;99061.03;5041392;28;700;-76
2021/03/30 08:24:44;;;;;;;;;;;;;;;22.16;26.91;99065.00;5025648;28;1191;-76
2021/03/30 08:27:30;;;;;;;;;;;;;;;22.75;26.25;99061.81;5041701;28;646;-75
2021/03/30 08:30:13;;;;;;;;;;;;;;;22.70;26.19;99053.78;5038896;28;988;-72
2021/03/30 08:32:46;;;;;;;;;;;;;;;22.53;26.34;99055.59;5040841;28;860;-74
2021/03/30 08:35:27;;;;;;;;;;;;;;;22.60;26.22;99049.84;5040391;28;701;-75
2021/03/30 08:38:01;;;;;;;;;;;;;;;22.61;26.40;99059.16;5041342;28;1910;-74
2021/03/30 08:40:33;;;;;;;;;;;;;;;22.75;26.03;99053.28;5041099;28;642;-77
2021/03/30 08:42:59;;;;;;;;;;;;;;;22.94;25.72;99045.31;5040959;28;633;-74
2021/03/30 08:45:30;;;;;;;;;;;;;;;22.79;26.21;99051.19;5040499;28;955;-76
2021/03/30 08:48:12;;;;;;;;;;;;;;;22.92;26.25;99053.47;5039837;28;1351;-77
2021/03/30 08:50:43;;;;;;;;;;;;;;;22.85;25.90;99055.16;5041366;28;638;-73
2021/03/30 08:53:18;;;;;;;;;;;;;;;22.79;25.84;99059.69;5041258;28;758;-78
2021/03/30 08:55:51;;;;;;;;;;;;;;;22.70;26.39;99053.78;5040999;28;1964;-77
2021/03/30 08:58:26;;;;;;;;;;;;;;;22.46;26.52;99049.25;5041142;28;654;-76
2021/03/30 09:00:59;;;;;;;;;;;;;;;22.66;26.36;99058.69;5041050;28;626;-73
2021/03/30 09:03:30;;;;;;;;;;;;;;;22.66;26.13;99046.53;5040149;28;749;-76
2021/03/30 09:06:03;;;;;;;;;;;;;;;22.73;26.06;99043.59;5040406;28;1048;-76
2021/03/30 09:08:41;;;;;;;;;;;;;;;22.90;25.80;99044.56;5039949;28;958;-74
2021/03/30 09:11:36;;;;;;;;;;;;;;;22.85;25.99;99054.38;5040016;28;690;-74
2021/03/30 09:14:08;;;;;;;;;;;;;;;22.70;26.17;99048.09;5040350;28;638;-75
2021/03/30 09:16:40;;;;;;;;;;;;;;;22.85;25.86;99048.69;5039739;28;1965;-74
2021/03/30 09:19:18;;;;;;;;;;;;;;;23.01;25.90;99050.91;5039335;28;1154;-76
2021/03/30 09:21:57;;;;;;;;;;;;;;;22.73;26.19;99049.25;5038033;28;1098;-74
2021/03/30 09:24:38;;;;;;;;;;;;;;;22.73;26.19;99035.88;5036956;28;1187;-74
2021/03/30 09:27:10;;;;;;;;;;;;;;;22.86;26.22;99030.44;5033044;28;1221;-76
2021/03/30 09:29:36;;;;;;;;;;;;;;;23.06;25.83;99036.22;5029377;28;1164;-75
2021/03/30 09:32:14;;;;;;;;;;;;;;;22.89;25.92;99046.59;5040790;28;669;-75
2021/03/30 09:34:46;;;;;;;;;;;;;;;22.69;26.09;99034.31;5039774;28;653;-74
2021/03/30 09:37:18;;;;;;;;;;;;;;;22.59;26.36;99033.28;5039994;28;1971;-74
2021/03/30 09:39:50;;;;;;;;;;;;;;;22.88;25.78;99034.47;5039301;28;958;-72
2021/03/30 09:42:22;;;;;;;;;;;;;;;22.76;25.98;99034.22;5040346;28;626;-74
2021/03/30 09:44:55;;;;;;;;;;;;;;;22.59;25.71;99030.44;5039875;28;742;-72
2021/03/30 09:47:27;;;;;;;;;;;;;;;22.77;25.62;99021.66;5039584;28;767;-74
2021/03/30 09:49:59;;;;;;;;;;;;;;;22.68;25.42;99022.16;5040500;28;694;-73
2021/03/30 09:52:25;;;;;;;;;;;;;;;22.75;25.26;99036.28;5038955;28;1059;-73
2021/03/30 09:54:56;;;;;;;;;;;;;;;22.64;25.67;99035.63;5039263;28;845;-74
2021/03/30 09:57:29;;;;;;;;;;;;;;;22.77;25.19;99024.47;5039700;28;1961;-73
2021/03/30 10:00:02;;;;;;;;;;;;;;;22.74;25.08;99025.31;5039241;28;673;-72
2021/03/30 10:02:34;;;;;;;;;;;;;;;22.75;24.94;99016.41;5039906;28;626;-74
2021/03/30 10:05:07;;;;;;;;;;;;;;;22.75;24.91;99016.41;5039543;28;670;-74
2021/03/30 10:07:39;;;;;;;;;;;;;;;22.70;25.22;99019.72;5039570;28;944;-74
2021/03/30 10:10:12;;;;;;;;;;;;;;;22.70;25.14;99014.06;5039512;28;909;-74
2021/03/30 10:12:51;;;;;;;;;;;;;;;22.71;25.02;99012.81;5040192;28;650;-74
2021/03/30 10:15:29;;;;;;;;;;;;;;;22.69;24.68;99018.13;5040189;28;786;-74
2021/03/30 10:18:02;;;;;;;;;;;;;;;22.61;25.09;99022.28;5039893;28;1898;-78
2021/03/30 10:20:35;;;;;;;;;;;;;;;22.65;25.04;99017.38;5040887;28;722;-76
2021/03/30 10:23:17;;;;;;;;;;;;;;;22.83;24.72;99029.25;5042921;28;711;-72
2021/03/30 10:25:50;;;;;;;;;;;;;;;22.73;24.71;99035.06;5043763;28;864;-75
2021/03/30 10:28:28;;;;;;;;;;;;;;;22.77;24.90;99025.28;5042959;28;904;-74
2021/03/30 10:31:18;;;;;;;;;;;;;;;22.70;24.87;99031.06;5042684;28;1232;-74
2021/03/30 10:33:51;;;;;;;;;;;;;;;22.51;25.11;99024.03;5043453;28;746;-75
2021/03/30 10:36:16;;;;;;;;;;;;;;;22.50;25.15;99021.63;5044289;28;1906;-76
2021/03/30 10:39:04;;;;;;;;;;;;;;;22.78;25.06;99021.22;5042808;28;800;-76
2021/03/30 10:41:37;;;;;;;;;;;;;;;22.72;25.28;99022.94;5043756;28;972;-76
2021/03/30 10:44:14;;;;;;;;;;;;;;;22.65;25.26;99023.03;5042733;28;874;-75
2021/03/30 10:46:47;;;;;;;;;;;;;;;22.60;25.18;99015.81;5043380;28;698;-74
2021/03/30 10:49:19;;;;;;;;;;;;;;;22.82;25.11;99021.97;5043788;28;649;-79
2021/03/30 10:51:51;;;;;;;;;;;;;;;22.84;25.08;99019.47;5043055;28;714;-75
2021/03/30 10:54:26;;;;;;;;;;;;;;;22.91;24.58;99017.81;5042524;28;1100;-74
2021/03/30 10:56:58;;;;;;;;;;;;;;;22.76;24.90;99029.34;5042985;28;1894;-74
2021/03/30 10:59:30;;;;;;;;;;;;;;;22.69;25.07;99012.44;5042675;28;856;-75
2021/03/30 11:02:03;;;;;;;;;;;;;;;22.67;24.93;99020.56;5043168;28;707;-75
2021/03/30 11:04:34;;;;;;;;;;;;;;;22.79;24.83;99004.97;5043092;28;685;-75
2021/03/30 11:07:00;;;;;;;;;;;;;;;22.57;25.33;98999.63;5043566;28;599;-73
2021/03/30 11:09:32;;;;;;;;;;;;;;;22.90;24.91;99002.84;5042850;28;657;-74
2021/03/30 11:12:04;;;;;;;;;;;;;;;22.74;25.11;99006.28;5042559;28;948;-78
2021/03/30 11:14:35;;;;;;;;;;;;;;;22.42;25.76;99015.25;5041728;28;878;-76
2021/03/30 11:17:07;;;;;;;;;;;;;;;22.48;25.34;99013.53;5042796;28;1902;-74
2021/03/30 11:19:39;;;;;;;;;;;;;;;22.64;25.17;99015.78;5042421;28;669;-73
2021/03/30 11:22:11;;;;;;;;;;;;;;;22.66;25.08;99013.28;5042715;28;680;-74
2021/03/30 11:24:44;;;;;;;;;;;;;;;22.71;25.12;99003.50;5042451;28;669;-74
2021/03/30 11:27:16;;;;;;;;;;;;;;;22.64;25.26;99012.94;5041312;28;1081;-74
2021/03/30 11:30:12;;;;;;;;;;;;;;;22.64;25.39;99004.41;5040569;28;978;-72
2021/03/30 11:33:04;;;;;;;;;;;;;;;22.90;24.95;99016.19;5041210;28;678;-77
2021/03/30 11:35:50;;;;;;;;;;;;;;;22.57;25.52;98998.84;5042021;28;1078;-74
2021/03/30 11:38:47;;;;;;;;;;;;;;;22.60;25.48;99009.34;5041802;28;1079;-74
2021/03/30 11:41:19;;;;;;;;;;;;;;;22.60;25.58;99015.00;5042078;28;570;-74
2021/03/30 11:43:52;;;;;;;;;;;;;;;22.64;25.36;99012.94;5041579;28;944;-71
2021/03/30 11:46:23;;;;;;;;;;;;;;;22.69;25.12;99018.13;5042802;28;922;-74
2021/03/30 11:48:49;;;;;;;;;;;;;;;22.70;25.06;99016.09;5041879;28;641;-74
2021/03/30 11:51:21;;;;;;;;;;;;;;;22.59;25.45;99002.06;5041814;28;598;-74
2021/03/30 11:53:53;;;;;;;;;;;;;;;22.70;25.27;99008.38;5041649;28;670;-73
2021/03/30 11:56:25;;;;;;;;;;;;;;;22.40;25.57;98999.91;5041562;28;1980;-73
2021/03/30 11:59:03;;;;;;;;;;;;;;;22.73;25.17;99007.50;5041031;28;1099;-74
2021/03/30 12:01:35;;;;;;;;;;;;;;;22.82;25.29;99004.13;5041321;28;943;-74
2021/03/30 12:04:07;;;;;;;;;;;;;;;22.98;24.85;98989.31;5041583;28;630;-73
2021/03/30 12:06:39;;;;;;;;;;;;;;;22.88;25.08;98986.22;5041383;28;1118;-74
2021/03/30 12:09:11;;;;;;;;;;;;;;;22.81;25.34;98983.47;5041581;28;1075;-74
2021/03/30 12:11:44;;;;;;;;;;;;;;;22.81;25.41;98974.16;5041559;28;647;-73
2021/03/30 12:14:17;;;;;;;;;;;;;;;23.02;25.18;98990.88;5040806;28;879;-74
2021/03/30 12:16:50;;;;;;;;;;;;;;;23.02;25.51;98984.38;5041138;28;1898;-75
2021/03/30 12:19:22;;;;;;;;;;;;;;;23.03;25.50;98997.34;5041367;28;730;-74
2021/03/30 12:21:55;;;;;;;;;;;;;;;23.02;25.45;98990.06;5041397;28;643;-74
2021/03/30 12:24:27;;;;;;;;;;;;;;;22.88;25.42;98980.53;5041152;28;667;-74
2021/03/30 12:26:52;;;;;;;;;;;;;;;22.88;25.42;98986.22;5041245;28;590;-74
2021/03/30 12:29:25;;;;;;;;;;;;;;;22.86;25.60;98971.63;5038950;28;990;-74
2021/03/30 12:32:03;;;;;;;;;;;;;;;22.82;25.68;98975.75;5040629;28;928;-74
2021/03/30 12:34:35;;;;;;;;;;;;;;;22.74;25.87;98975.09;5041014;28;606;-75
2021/03/30 12:37:09;;;;;;;;;;;;;;;22.76;25.95;98983.97;5040895;28;1969;-74
2021/03/30 12:39:42;;;;;;;;;;;;;;;22.79;26.16;98971.72;5040893;28;650;-74
2021/03/30 12:42:14;;;;;;;;;;;;;;;22.98;25.65;98977.97;5041102;28;646;-75
2021/03/30 12:44:45;;;;;;;;;;;;;;;22.98;25.69;98983.63;5040406;28;871;-76
2021/03/30 12:47:17;;;;;;;;;;;;;;;22.95;25.73;98984.50;5040697;28;946;-75
2021/03/30 12:49:49;;;;;;;;;;;;;;;22.90;25.87;98970.78;5041138;28;686;-75
2021/03/30 12:52:21;;;;;;;;;;;;;;;23.07;25.52;98969.69;5040989;28;1163;-74
2021/03/30 12:54:56;;;;;;;;;;;;;;;22.61;26.15;98971.22;5041265;28;694;-77
2021/03/30 12:57:28;;;;;;;;;;;;;;;22.90;25.94;98971.63;5041938;28;1902;-78
2021/03/30 13:00:00;;;;;;;;;;;;;;;22.90;25.62;98963.09;5040942;28;841;-76
2021/03/30 13:02:32;;;;;;;;;;;;;;;22.95;25.82;98967.47;5041227;28;900;-75
2021/03/30 13:04:58;;;;;;;;;;;;;;;22.92;25.47;98969.13;5040956;28;666;-76
2021/03/30 13:07:29;;;;;;;;;;;;;;;22.66;25.95;98967.91;5041701;28;659;-75
2021/03/30 13:10:02;;;;;;;;;;;;;;;22.81;25.84;98963.63;5041078;28;733;-79
2021/03/30 13:12:35;;;;;;;;;;;;;;;22.76;26.16;98969.78;5042942;28;654;-84
2021/03/30 13:15:08;;;;;;;;;;;;;;;23.07;25.30;98961.19;5040129;28;1106;-77
2021/03/30 13:17:39;;;;;;;;;;;;;;;23.22;25.05;98971.06;5042590;28;1972;-76
2021/03/30 13:20:12;;;;;;;;;;;;;;;23.08;25.38;98960.75;5041793;28;642;-76
2021/03/30 13:22:45;;;;;;;;;;;;;;;22.82;25.85;98961.56;5041980;28;658;-76
2021/03/30 13:25:23;;;;;;;;;;;;;;;22.73;25.67;98967.78;5040716;28;960;-75